Time;durP1;ratioP1;P1;durP2;ratioP2;P2;SDS_P1;SDS_P2;PMS_P1;PMS_P2;Temp;Humidity;BMP_temperature;BMP_pressure;BME280_temperature;BME280_humidity;BME280_pressure;Samples;Min_cycle;Max_cycle;Signal;HPM_P1;HPM_P2
2022/04/02 00:02:21;;;;;;;1.60;1.50;;;;;;;15.38;49.93;97401.25;1770401;79;21045;-59
2022/04/02 00:04:47;;;;;;;1.87;1.77;;;;;;;15.38;49.93;97399.91;1803328;78;21648;-60
2022/04/02 00:07:14;;;;;;;1.60;1.50;;;;;;;15.37;49.97;97408.45;1825408;78;21089;-60
2022/04/02 00:09:43;;;;;;;1.60;1.50;;;;;;;15.37;49.94;97407.65;1776458;79;21052;-59
2022/04/02 00:12:11;;;;;;;1.10;1.05;;;;;;;15.36;49.94;97396.15;1777975;79;20986;-59
2022/04/02 00:14:37;;;;;;;1.50;1.40;;;;;;;15.36;49.94;97406.05;1803406;78;21073;-59
2022/04/02 00:17:06;;;;;;;1.62;1.52;;;;;;;15.36;49.93;97404.17;1796860;78;21457;-59
2022/04/02 00:19:36;;;;;;;1.80;1.60;;;;;;;15.35;49.94;97421.27;1787135;78;20962;-60
2022/04/02 00:22:04;;;;;;;1.67;1.57;;;;;;;15.35;49.96;97435.98;1823759;78;21021;-59
2022/04/02 00:24:32;;;;;;;1.37;1.27;;;;;;;15.34;49.94;97426.36;1803308;78;21088;-61
2022/04/02 00:26:59;;;;;;;1.60;1.50;;;;;;;15.33;49.94;97418.05;1807682;78;21251;-59
2022/04/02 00:29:27;;;;;;;1.65;1.55;;;;;;;15.32;49.95;97433.84;1776857;79;21049;-60
2022/04/02 00:31:54;;;;;;;2.00;1.80;;;;;;;15.32;49.96;97438.65;1802918;78;21032;-61
2022/04/02 00:34:21;;;;;;;1.52;1.42;;;;;;;15.32;49.97;97444.54;1794303;79;21502;-60
2022/04/02 00:36:48;;;;;;;1.62;1.52;;;;;;;15.31;49.95;97441.58;1807365;78;21241;-60
2022/04/02 00:39:14;;;;;;;1.70;1.60;;;;;;;15.31;49.96;97442.38;1807707;78;21533;-60
2022/04/02 00:41:40;;;;;;;1.92;1.40;;;;;;;15.30;49.97;97439.98;1802542;78;21061;-60
2022/04/02 00:44:14;;;;;;;1.70;1.40;;;;;;;15.30;49.96;97443.45;1811527;79;21335;-60
2022/04/02 00:46:42;;;;;;;1.60;1.50;;;;;;;15.30;49.97;97446.66;1811624;78;21534;-59
2022/04/02 00:49:12;;;;;;;1.40;1.30;;;;;;;15.30;49.97;97454.69;1811469;79;21466;-60
2022/04/02 00:51:43;;;;;;;1.40;1.30;;;;;;;15.28;49.98;97458.95;1811520;79;21049;-60
2022/04/02 00:54:19;;;;;;;1.40;1.30;;;;;;;15.28;49.98;97466.17;1804113;78;21077;-60
2022/04/02 00:56:46;;;;;;;1.62;1.52;;;;;;;15.27;49.99;97463.20;1808324;78;21560;-59
2022/04/02 00:59:13;;;;;;;1.62;1.52;;;;;;;15.27;50.00;97467.22;1800018;78;21020;-61
2022/04/02 01:01:43;;;;;;;1.45;1.35;;;;;;;15.25;50.01;97455.97;1766598;78;21252;-59
2022/04/02 01:04:10;;;;;;;1.47;1.37;;;;;;;15.26;50.00;97442.86;1795373;78;21001;-59
2022/04/02 01:06:43;;;;;;;1.67;1.40;;;;;;;15.24;50.01;97418.23;1805237;78;21009;-60
2022/04/02 01:09:21;;;;;;;1.72;1.55;;;;;;;15.24;50.01;97408.37;1779490;79;21056;-60
2022/04/02 01:11:51;;;;;;;1.60;1.50;;;;;;;15.24;50.02;97413.72;1788628;79;21016;-59
2022/04/02 01:14:18;;;;;;;1.67;1.57;;;;;;;15.24;50.01;97418.23;1771323;79;22070;-60
2022/04/02 01:16:47;;;;;;;1.30;1.20;;;;;;;15.23;50.02;97420.65;1767626;80;21012;-60
2022/04/02 01:19:17;;;;;;;1.50;1.40;;;;;;;15.22;50.01;97428.38;1786913;79;21121;-60
2022/04/02 01:21:46;;;;;;;1.55;1.45;;;;;;;15.21;50.00;97427.59;1817948;78;21025;-58
2022/04/02 01:24:16;;;;;;;1.40;1.30;;;;;;;15.21;50.02;97427.59;1767345;78;21017;-58
2022/04/02 01:26:43;;;;;;;1.62;1.47;;;;;;;15.20;50.02;97427.32;1807672;78;21956;-60
2022/04/02 01:29:11;;;;;;;1.60;1.50;;;;;;;15.21;50.03;97430.26;1780133;78;21048;-59
2022/04/02 01:31:44;;;;;;;1.60;1.50;;;;;;;15.20;50.03;97438.53;1801322;78;21484;-59
2022/04/02 01:34:11;;;;;;;1.45;1.27;;;;;;;15.20;50.03;97450.56;1808974;78;21552;-60
2022/04/02 01:36:40;;;;;;;1.55;1.45;;;;;;;15.19;50.03;97455.66;1775652;79;21033;-60
2022/04/02 01:39:09;;;;;;;1.30;1.20;;;;;;;15.19;50.05;97451.64;1796794;78;21145;-60
2022/04/02 01:41:36;;;;;;;1.45;1.35;;;;;;;15.18;50.04;97440.66;1768780;79;20985;-59
2022/04/02 01:44:02;;;;;;;1.50;1.40;;;;;;;15.18;50.03;97430.75;1807361;78;21479;-61
2022/04/02 01:46:30;;;;;;;1.55;1.45;;;;;;;15.18;50.02;97416.05;1758788;81;21052;-59
2022/04/02 01:48:57;;;;;;;1.67;1.42;;;;;;;15.18;50.03;97411.23;1783390;80;21026;-59
2022/04/02 01:51:23;;;;;;;1.40;1.30;;;;;;;15.18;50.02;97406.69;1775242;80;22078;-60
2022/04/02 01:53:50;;;;;;;1.30;1.20;;;;;;;15.16;50.01;97404.80;1773387;80;21014;-60
2022/04/02 01:56:16;;;;;;;1.32;1.22;;;;;;;15.17;50.01;97406.96;1773523;80;21190;-60
2022/04/02 01:58:52;;;;;;;1.50;1.40;;;;;;;15.15;49.99;97399.19;1761430;79;21021;-60
2022/04/02 02:01:21;;;;;;;1.30;1.20;;;;;;;15.14;49.99;97403.74;1775108;79;21029;-60
2022/04/02 02:03:48;;;;;;;1.40;1.30;;;;;;;15.14;50.01;97387.70;1771537;80;21237;-60
2022/04/02 02:06:14;;;;;;;1.20;1.10;;;;;;;15.13;50.01;97390.08;1813870;78;21533;-59
2022/04/02 02:08:43;;;;;;;1.35;1.25;;;;;;;15.13;50.03;97404.78;1814551;78;21033;-59
2022/04/02 02:11:29;;;;;;;1.37;1.27;;;;;;;15.12;50.03;97407.20;1823014;78;21049;-60
2022/04/02 02:14:15;;;;;;;1.50;1.40;;;;;;;15.12;50.02;97404.53;1826111;78;21056;-59
2022/04/02 02:16:43;;;;;;;1.37;1.27;;;;;;;15.11;50.04;97402.10;1789492;79;21029;-60
2022/04/02 02:19:10;;;;;;;1.47;1.37;;;;;;;15.10;50.03;97412.00;1739191;79;21043;-59
2022/04/02 02:21:37;;;;;;;1.10;1.10;;;;;;;15.10;50.04;97389.78;1745583;81;21014;-60
2022/04/02 02:24:05;;;;;;;1.35;1.25;;;;;;;15.10;50.03;97396.46;1737526;81;21080;-60
2022/04/02 02:26:32;;;;;;;1.10;1.10;;;;;;;15.10;50.03;97388.44;1750431;81;21086;-59
2022/04/02 02:28:59;;;;;;;1.32;1.20;;;;;;;15.09;50.00;97382.83;1746570;81;21415;-60
2022/04/02 02:31:27;;;;;;;1.30;1.20;;;;;;;15.09;50.00;97374.81;1760468;80;21506;-60
2022/04/02 02:36:42;;;;;;;1.37;1.27;;;;;;;15.07;50.01;97375.06;1784745;79;20982;-59
2022/04/02 02:39:12;;;;;;;1.17;1.07;;;;;;;15.08;50.01;97385.22;1789252;80;21018;-60
2022/04/02 02:41:40;;;;;;;1.30;1.20;;;;;;;15.07;50.01;97382.28;1749378;81;21145;-60
2022/04/02 02:44:09;;;;;;;1.25;1.15;;;;;;;15.06;50.04;97370.76;1745312;81;21614;-59
2022/04/02 02:46:43;;;;;;;1.50;1.40;;;;;;;15.05;50.02;97367.03;1768472;79;21548;-60
2022/04/02 02:49:12;;;;;;;1.00;1.00;;;;;;;15.05;50.01;97357.13;1771906;79;21047;-59
2022/04/02 02:51:40;;;;;;;1.10;1.00;;;;;;;15.05;50.02;97359.80;1774584;79;21053;-60
2022/04/02 02:54:10;;;;;;;1.45;1.20;;;;;;;15.05;50.01;97350.98;1770462;79;21193;-60
2022/04/02 02:56:37;;;;;;;1.27;1.17;;;;;;;15.04;50.01;97342.13;1777056;79;21580;-60
2022/04/02 02:59:05;;;;;;;0.93;0.93;;;;;;;15.04;50.02;97342.67;1776902;79;21065;-59
2022/04/02 03:01:32;;;;;;;1.00;1.00;;;;;;;15.04;50.00;97343.47;1765442;79;21238;-59
2022/04/02 03:04:00;;;;;;;1.40;1.30;;;;;;;15.03;50.01;97345.89;1783357;79;21061;-58
2022/04/02 03:06:28;;;;;;;1.37;1.07;;;;;;;15.02;50.01;97345.59;1770437;79;21472;-60
2022/04/02 03:08:56;;;;;;;1.15;1.00;;;;;;;15.02;50.01;97356.29;1774655;79;21009;-59
2022/04/02 03:11:22;;;;;;;1.32;1.22;;;;;;;15.02;50.00;97354.95;1756889;81;21010;-59
2022/04/02 03:13:51;;;;;;;1.27;1.20;;;;;;;15.02;50.00;97346.13;1726327;81;21031;-59
2022/04/02 03:16:18;;;;;;;1.30;1.20;;;;;;;15.02;50.00;97356.83;1742385;81;20981;-60
2022/04/02 03:18:47;;;;;;;1.30;1.20;;;;;;;15.02;50.00;97367.52;1753570;81;21149;-60
2022/04/02 03:21:16;;;;;;;1.30;1.20;;;;;;;15.01;50.00;97376.59;1744310;81;21048;-59
2022/04/02 03:23:44;;;;;;;1.20;1.10;;;;;;;15.01;49.98;97385.44;1749674;81;21677;-58
2022/04/02 03:26:12;;;;;;;1.00;1.00;;;;;;;15.00;50.00;97377.13;1744457;81;21076;-60
2022/04/02 03:28:43;;;;;;;1.50;1.00;;;;;;;15.00;49.98;97358.41;1742446;81;21069;-60
2022/04/02 03:31:10;;;;;;;1.00;1.00;;;;;;;15.00;49.97;97347.72;1746735;81;21223;-59
2022/04/02 03:33:40;;;;;;;1.10;1.00;;;;;;;15.00;49.98;97361.63;1744427;81;21461;-60
2022/04/02 03:36:10;;;;;;;0.90;0.90;;;;;;;14.99;49.98;97348.80;1744548;81;21040;-61
2022/04/02 03:38:38;;;;;;;0.90;0.90;;;;;;;14.99;49.97;97346.13;1738563;81;21056;-60
2022/04/02 03:41:06;;;;;;;1.00;1.00;;;;;;;14.99;49.98;97347.97;1771267;79;21005;-59
2022/04/02 03:43:34;;;;;;;1.10;1.00;;;;;;;14.99;49.98;97341.28;1760014;79;21757;-59
2022/04/02 03:48:48;;;;;;;1.50;1.40;;;;;;;14.97;49.97;97320.17;1750754;81;20985;-59
2022/04/02 03:51:14;;;;;;;1.07;1.05;;;;;;;14.96;49.97;97334.59;1753126;79;21072;-59
2022/04/02 03:53:43;;;;;;;1.37;1.20;;;;;;;14.95;50.00;97314.28;1776999;79;21065;-60
2022/04/02 03:56:10;;;;;;;1.37;1.27;;;;;;;14.95;49.99;97303.59;1784144;79;21151;-59
2022/04/02 03:58:43;;;;;;;1.07;0.98;;;;;;;14.93;50.00;97307.84;1776882;79;21600;-60
2022/04/02 04:01:11;;;;;;;1.20;1.10;;;;;;;14.93;49.98;97297.66;1789975;79;21084;-60
2022/04/02 04:03:40;;;;;;;1.10;1.10;;;;;;;14.93;49.99;97312.37;1779046;79;21053;-60
2022/04/02 04:06:07;;;;;;;1.02;1.00;;;;;;;14.92;50.00;97302.75;1770434;79;21096;-60
2022/04/02 04:08:37;;;;;;;0.98;0.98;;;;;;;14.92;49.99;97287.51;1781150;79;21612;-60
2022/04/02 04:11:04;;;;;;;1.50;1.40;;;;;;;14.93;50.00;97289.64;1759257;79;21100;-60
2022/04/02 04:13:32;;;;;;;0.90;0.90;;;;;;;14.93;49.99;97286.97;1773878;79;21004;-60
2022/04/02 04:16:01;;;;;;;1.00;1.00;;;;;;;14.92;49.99;97293.39;1789410;79;21139;-58
2022/04/02 04:18:29;;;;;;;1.00;1.00;;;;;;;14.92;49.99;97289.38;1746043;81;21527;-60
2022/04/02 04:20:57;;;;;;;0.90;0.90;;;;;;;14.93;49.99;97304.34;1752923;81;22074;-60
2022/04/02 04:23:26;;;;;;;0.90;0.90;;;;;;;14.91;49.98;97297.12;1748265;81;21517;-60
2022/04/02 04:25:54;;;;;;;0.90;0.90;;;;;;;14.92;49.97;97303.55;1739629;81;21029;-61
2022/04/02 04:28:22;;;;;;;1.32;1.10;;;;;;;14.91;49.98;97307.81;1778970;79;20982;-62
2022/04/02 04:30:51;;;;;;;0.90;0.90;;;;;;;14.90;49.96;97292.30;1750283;80;21200;-61
2022/04/02 04:33:17;;;;;;;0.90;0.90;;;;;;;14.91;49.97;97288.59;1739661;80;21879;-60
2022/04/02 04:35:44;;;;;;;1.17;1.05;;;;;;;14.90;49.98;97290.17;1825274;78;21060;-59
2022/04/02 04:38:12;;;;;;;0.90;0.90;;;;;;;14.89;49.97;97284.54;1797337;78;22116;-59
2022/04/02 04:40:39;;;;;;;1.10;1.00;;;;;;;14.90;49.98;97278.14;1771734;79;21028;-59
2022/04/02 04:43:08;;;;;;;0.98;0.98;;;;;;;14.90;49.97;97278.14;1798761;78;20997;-60
2022/04/02 04:45:36;;;;;;;1.00;1.00;;;;;;;14.90;49.96;97283.48;1797498;78;22344;-60
2022/04/02 04:48:04;;;;;;;1.77;1.00;;;;;;;14.88;49.97;97294.43;1813714;78;21076;-59
2022/04/02 04:50:37;;;;;;;0.90;0.90;;;;;;;14.89;49.98;97292.05;1812013;78;21504;-59
2022/04/02 04:53:03;;;;;;;1.00;0.90;;;;;;;14.89;49.97;97299.24;1778521;79;21146;-60
2022/04/02 04:55:30;;;;;;;1.00;1.00;;;;;;;14.88;49.96;97297.64;1758373;80;21601;-59
2022/04/02 04:57:58;;;;;;;1.10;1.00;;;;;;;14.88;49.98;97293.09;1785414;79;21243;-61
2022/04/02 05:00:27;;;;;;;0.90;0.80;;;;;;;14.87;49.99;97290.67;1784645;79;21020;-60
2022/04/02 05:02:54;;;;;;;0.93;0.90;;;;;;;14.87;49.97;97294.17;1779262;79;21084;-60
2022/04/02 05:05:23;;;;;;;0.90;0.90;;;;;;;14.87;49.99;97301.36;1778723;79;21029;-60
2022/04/02 05:07:50;;;;;;;1.10;1.00;;;;;;;14.88;49.98;97293.63;1769018;80;21516;-60
2022/04/02 05:10:19;;;;;;;1.17;1.10;;;;;;;14.86;49.98;97294.42;1781127;79;21115;-59
2022/04/02 05:12:47;;;;;;;0.82;0.82;;;;;;;14.86;49.97;97291.75;1770313;79;21107;-60
2022/04/02 05:15:16;;;;;;;0.90;0.90;;;;;;;14.86;49.99;97296.55;1758052;79;21029;-60
2022/04/02 05:17:45;;;;;;;0.95;0.90;;;;;;;14.86;49.99;97309.92;1774671;79;21071;-59
2022/04/02 05:20:14;;;;;;;0.90;0.90;;;;;;;14.87;49.99;97308.05;1775582;79;21565;-59
2022/04/02 05:22:44;;;;;;;1.02;1.02;;;;;;;14.86;49.99;97295.22;1787744;79;21234;-59
2022/04/02 05:25:11;;;;;;;1.00;1.00;;;;;;;14.86;49.99;97299.77;1781345;79;21093;-59
2022/04/02 05:27:40;;;;;;;0.90;0.90;;;;;;;14.86;49.99;97303.78;1781104;79;21116;-59
2022/04/02 05:30:09;;;;;;;1.00;1.00;;;;;;;14.86;49.99;97296.55;1787612;79;21052;-59
2022/04/02 05:35:50;;;;;;;1.00;1.00;;;;;;;14.90;49.97;97296.86;1735462;75;28030;-60
2022/04/02 05:38:16;;;;;;;1.25;1.00;;;;;;;14.91;49.90;97295.78;1697554;83;21030;-61
2022/04/02 05:40:43;;;;;;;1.52;1.00;;;;;;;14.91;49.88;97289.92;1655991;86;22277;-59
2022/04/02 05:43:09;;;;;;;1.00;0.80;;;;;;;14.91;49.88;97293.94;1656953;86;21108;-60
2022/04/02 05:45:36;;;;;;;1.85;1.07;;;;;;;14.91;49.87;97289.09;1657877;86;21069;-59
2022/04/02 05:48:05;;;;;;;1.22;1.10;;;;;;;14.90;49.88;97288.30;1661120;86;21029;-59
2022/04/02 05:50:31;;;;;;;1.77;1.10;;;;;;;14.91;49.87;97287.76;1659540;86;21045;-61
2022/04/02 05:52:58;;;;;;;1.62;0.90;;;;;;;14.90;49.87;97288.84;1661004;86;21211;-61
2022/04/02 05:55:25;;;;;;;0.93;0.93;;;;;;;14.90;49.85;97291.51;1656484;86;21034;-59
2022/04/02 05:57:53;;;;;;;1.30;1.20;;;;;;;14.89;49.84;97289.38;1654217;86;20950;-60
2022/04/02 06:00:21;;;;;;;0.90;0.90;;;;;;;14.89;49.85;97292.55;1654591;86;21033;-60
2022/04/02 06:02:49;;;;;;;1.00;0.90;;;;;;;14.89;49.85;97291.22;1660415;86;21096;-60
2022/04/02 06:05:15;;;;;;;1.22;0.90;;;;;;;14.89;49.87;97296.56;1659055;86;22329;-59
2022/04/02 06:07:42;;;;;;;1.05;1.00;;;;;;;14.88;49.86;97290.42;1658489;86;21187;-60
2022/04/02 06:10:10;;;;;;;1.00;0.90;;;;;;;14.88;49.86;97288.29;1660748;86;21085;-60
2022/04/02 06:12:37;;;;;;;1.12;0.88;;;;;;;14.88;49.85;97298.44;1655335;86;21050;-59
2022/04/02 06:15:09;;;;;;;0.80;0.80;;;;;;;14.87;49.85;97296.84;1656162;86;21102;-60
2022/04/02 06:17:36;;;;;;;0.80;0.80;;;;;;;14.87;49.85;97291.50;1629148;87;21116;-59
2022/04/02 06:20:06;;;;;;;0.90;0.90;;;;;;;14.88;49.84;97293.63;1631903;87;21033;-60
2022/04/02 06:22:34;;;;;;;0.90;0.90;;;;;;;14.87;49.85;97293.34;1628684;87;21104;-60
2022/04/02 06:25:03;;;;;;;1.07;0.98;;;;;;;14.87;49.85;97300.03;1630366;87;21096;-60
2022/04/02 06:27:30;;;;;;;0.80;0.80;;;;;;;14.87;49.85;97298.69;1623106;87;21090;-60
2022/04/02 06:29:58;;;;;;;1.15;0.85;;;;;;;14.86;49.85;97299.23;1628310;87;21258;-60
2022/04/02 06:32:25;;;;;;;0.90;0.90;;;;;;;14.86;49.85;97301.11;1632445;86;21621;-60
2022/04/02 06:34:53;;;;;;;1.30;1.20;;;;;;;14.85;49.85;97300.81;1630229;86;21064;-60
2022/04/02 06:37:20;;;;;;;0.93;0.93;;;;;;;14.86;49.85;97297.09;1632839;87;21017;-60
2022/04/02 06:39:48;;;;;;;0.82;0.82;;;;;;;14.85;49.84;97288.78;1640467;86;21529;-60
2022/04/02 06:42:15;;;;;;;0.90;0.90;;;;;;;14.85;49.84;97291.46;1659377;86;21490;-60
2022/04/02 06:44:44;;;;;;;0.95;0.95;;;;;;;14.86;49.84;97297.09;1661105;86;21634;-60
2022/04/02 06:47:11;;;;;;;0.98;0.95;;;;;;;14.85;49.86;97290.13;1659167;86;21054;-59
2022/04/02 06:49:38;;;;;;;0.72;0.72;;;;;;;14.84;49.82;97283.19;1652693;86;21048;-59
2022/04/02 06:52:06;;;;;;;0.98;0.98;;;;;;;14.83;49.83;97283.69;1658421;86;21084;-59
2022/04/02 06:54:34;;;;;;;1.30;1.20;;;;;;;14.84;49.82;97288.53;1658347;86;21007;-59
2022/04/02 06:57:02;;;;;;;1.10;1.00;;;;;;;14.84;49.84;97292.00;1651540;86;21029;-59
2022/04/02 06:59:29;;;;;;;1.10;1.00;;;;;;;14.84;49.83;97293.34;1656815;86;21154;-60
2022/04/02 07:01:57;;;;;;;0.93;0.93;;;;;;;14.84;49.81;97297.88;1658186;86;21126;-59
2022/04/02 07:04:24;;;;;;;0.90;0.90;;;;;;;14.84;49.83;97293.34;1657126;86;21494;-59
2022/04/02 07:06:51;;;;;;;1.10;1.00;;;;;;;14.83;49.82;97290.38;1653024;86;21817;-60
2022/04/02 07:09:18;;;;;;;1.07;0.98;;;;;;;14.84;49.81;97293.88;1685292;83;21165;-60
2022/04/02 07:11:46;;;;;;;0.93;0.93;;;;;;;14.84;49.81;97292.53;1681947;83;21053;-60
2022/04/02 07:14:13;;;;;;;1.37;1.27;;;;;;;14.84;49.82;97291.20;1687823;83;21080;-63
2022/04/02 07:16:42;;;;;;;0.95;0.93;;;;;;;14.84;49.81;97300.55;1684555;83;21605;-60
2022/04/02 07:19:08;;;;;;;1.17;1.07;;;;;;;14.84;49.83;97294.67;1688414;83;21267;-60
2022/04/02 07:21:36;;;;;;;0.95;0.90;;;;;;;14.82;49.83;97292.78;1682758;83;21013;-59
2022/04/02 07:24:05;;;;;;;0.82;0.82;;;;;;;14.84;49.82;97299.22;1674459;83;21031;-60
2022/04/02 07:26:32;;;;;;;1.27;0.82;;;;;;;14.84;49.81;97308.58;1633100;87;21546;-60
2022/04/02 07:29:00;;;;;;;1.22;1.12;;;;;;;14.83;49.83;97305.61;1630876;87;21049;-60
2022/04/02 07:31:27;;;;;;;1.37;1.00;;;;;;;14.83;49.81;97303.73;1632489;87;21258;-60
2022/04/02 07:33:53;;;;;;;1.77;1.30;;;;;;;14.85;49.84;97307.50;1632162;86;21124;-60
2022/04/02 07:37:04;;;;;;;1.00;1.00;;;;;;;14.84;49.82;97308.58;1623499;87;21057;-60
2022/04/02 07:39:48;;;;;;;1.17;1.07;;;;;;;14.84;49.81;97305.91;1636517;86;21180;-60
2022/04/02 07:42:43;;;;;;;2.00;1.12;;;;;;;14.84;49.81;97308.58;1654564;86;21060;-60
2022/04/02 07:45:17;;;;;;;2.85;1.15;;;;;;;14.84;49.82;97312.58;1656916;86;21257;-60
2022/04/02 07:47:47;;;;;;;1.30;1.20;;;;;;;14.81;49.86;97308.53;1653258;86;21041;-60
2022/04/02 07:50:15;;;;;;;1.30;1.20;;;;;;;14.80;49.86;97301.59;1655159;86;21009;-59
2022/04/02 07:52:44;;;;;;;0.88;0.88;;;;;;;14.81;49.86;97305.86;1657300;86;21535;-60
2022/04/02 07:55:11;;;;;;;1.07;0.90;;;;;;;14.82;49.83;97305.35;1657975;86;21006;-60
2022/04/02 07:57:44;;;;;;;1.35;1.10;;;;;;;14.81;49.86;97307.20;1656675;86;21309;-59
2022/04/02 08:00:14;;;;;;;1.25;1.15;;;;;;;14.82;49.87;97314.70;1659023;86;21081;-59
2022/04/02 08:02:43;;;;;;;1.20;1.10;;;;;;;14.81;49.87;97325.11;1659036;86;21013;-60
2022/04/02 08:05:14;;;;;;;1.95;1.37;;;;;;;14.81;49.87;97323.23;1657279;86;21629;-59
2022/04/02 08:07:57;;;;;;;1.52;0.90;;;;;;;14.81;49.87;97323.23;1655992;86;21065;-59
2022/04/02 08:10:27;;;;;;;1.20;1.07;;;;;;;14.82;49.85;97325.40;1656219;86;21147;-60
2022/04/02 08:12:57;;;;;;;1.17;1.07;;;;;;;14.81;49.86;97325.91;1658590;86;21238;-59
2022/04/02 08:15:24;;;;;;;1.20;1.00;;;;;;;14.82;49.86;97321.39;1641215;86;21577;-59
2022/04/02 08:17:54;;;;;;;2.15;1.10;;;;;;;14.83;49.85;97322.45;1665017;85;21113;-60
2022/04/02 08:20:22;;;;;;;1.10;1.00;;;;;;;14.83;49.85;97318.98;1657739;84;21049;-61
2022/04/02 08:22:51;;;;;;;1.07;1.07;;;;;;;14.82;49.86;97318.17;1658851;84;21058;-60
2022/04/02 08:25:19;;;;;;;1.35;1.25;;;;;;;14.84;49.85;97315.25;1668208;85;21049;-60
2022/04/02 08:28:09;;;;;;;1.05;1.00;;;;;;;14.84;49.85;97316.59;1665889;85;21773;-60
2022/04/02 08:30:48;;;;;;;1.57;1.10;;;;;;;14.85;49.84;97314.18;1626737;87;21040;-60
2022/04/02 08:33:51;;;;;;;1.30;1.20;;;;;;;14.85;49.83;97314.18;1628940;87;21574;-60
2022/04/02 08:36:46;;;;;;;2.20;1.77;;;;;;;14.85;49.84;97311.50;1633055;87;21295;-59
2022/04/02 08:39:41;;;;;;;1.10;1.00;;;;;;;14.85;49.85;97311.50;1634332;86;21533;-60
2022/04/02 08:42:25;;;;;;;1.17;1.07;;;;;;;14.84;49.87;97308.03;1618236;87;21085;-61
2022/04/02 08:45:12;;;;;;;1.10;1.00;;;;;;;14.85;49.86;97312.84;1665638;84;21025;-59
2022/04/02 08:48:11;;;;;;;1.05;0.98;;;;;;;14.85;49.91;97315.52;1687159;83;21536;-60
2022/04/02 08:50:47;;;;;;;1.15;1.05;;;;;;;14.85;49.90;97318.19;1693296;83;22043;-60
2022/04/02 08:53:20;;;;;;;1.32;1.20;;;;;;;14.85;49.92;97323.53;1699598;83;21062;-59
2022/04/02 08:55:50;;;;;;;1.27;1.10;;;;;;;14.85;49.91;97332.89;1659111;86;21061;-60
2022/04/02 08:58:51;;;;;;;1.40;1.27;;;;;;;14.85;49.93;97332.35;1657730;86;21053;-60
2022/04/02 09:01:27;;;;;;;1.50;1.20;;;;;;;14.86;49.93;97342.00;1654872;86;21103;-60
2022/04/02 09:04:15;;;;;;;1.20;1.10;;;;;;;14.87;49.92;97338.28;1660871;86;21242;-60
2022/04/02 09:07:31;;;;;;;1.10;1.00;;;;;;;14.87;49.92;97332.10;1655160;86;21089;-61
2022/04/02 09:10:50;;;;;;;1.30;1.20;;;;;;;14.87;49.92;97336.94;1656192;86;21056;-60
2022/04/02 09:13:33;;;;;;;1.40;1.30;;;;;;;14.86;49.93;97331.30;1659039;86;21170;-59
2022/04/02 09:16:05;;;;;;;1.25;1.15;;;;;;;14.87;49.93;97336.11;1659679;86;21105;-60
2022/04/02 09:18:41;;;;;;;1.55;1.30;;;;;;;14.86;49.96;97342.53;1663194;85;21216;-61
2022/04/02 09:21:25;;;;;;;1.22;1.12;;;;;;;14.86;49.96;97344.67;1669286;84;21041;-60
2022/04/02 09:24:28;;;;;;;1.77;1.35;;;;;;;14.86;49.97;97349.22;1637220;84;21551;-59
2022/04/02 09:27:37;;;;;;;1.60;1.45;;;;;;;14.87;49.98;97352.98;1631913;87;21021;-60
2022/04/02 09:30:36;;;;;;;2.05;1.70;;;;;;;14.87;49.97;97352.98;1661815;85;21047;-60
2022/04/02 09:33:31;;;;;;;1.45;1.30;;;;;;;14.87;49.97;97356.16;1628669;87;21992;-60
2022/04/02 09:36:29;;;;;;;2.75;1.70;;;;;;;14.87;49.97;97355.66;1630789;86;21073;-60
2022/04/02 09:39:07;;;;;;;2.98;1.65;;;;;;;14.86;49.99;97351.35;1632009;87;21064;-60
2022/04/02 09:41:56;;;;;;;2.17;1.60;;;;;;;14.86;49.99;97352.69;1632699;87;21112;-60
2022/04/02 09:44:58;;;;;;;1.70;1.55;;;;;;;14.87;49.99;97346.80;1631819;87;21080;-59
2022/04/02 09:47:49;;;;;;;1.47;1.35;;;;;;;14.88;50.00;97351.11;1630541;87;21088;-60
2022/04/02 09:50:22;;;;;;;2.92;1.72;;;;;;;14.88;50.00;97348.43;1628929;87;21070;-59
2022/04/02 09:53:16;;;;;;;3.03;1.73;;;;;;;14.87;49.99;97347.63;1634463;87;21084;-60
2022/04/02 09:56:17;;;;;;;2.85;1.60;;;;;;;14.87;49.99;97353.48;1633479;87;21048;-60
2022/04/02 09:59:09;;;;;;;3.22;1.80;;;;;;;14.88;49.98;97363.94;1630650;86;21013;-59
2022/04/02 10:02:03;;;;;;;1.52;1.40;;;;;;;14.88;49.97;97361.80;1620021;87;22137;-61
2022/04/02 10:04:50;;;;;;;2.17;1.45;;;;;;;14.89;49.97;97366.89;1623826;86;21142;-59
2022/04/02 10:07:57;;;;;;;2.15;1.70;;;;;;;14.88;49.98;97371.16;1631258;86;21168;-60
2022/04/02 10:10:26;;;;;;;1.70;1.60;;;;;;;14.89;49.98;97379.43;1657746;83;21031;-59
2022/04/02 10:12:54;;;;;;;1.75;1.65;;;;;;;14.89;49.96;97374.09;1657733;84;21059;-59
2022/04/02 10:15:23;;;;;;;2.20;1.85;;;;;;;14.89;49.97;97378.09;1659313;84;21151;-60
2022/04/02 10:17:52;;;;;;;2.20;1.60;;;;;;;14.88;49.98;97374.62;1657909;84;21080;-60
2022/04/02 10:20:20;;;;;;;3.45;1.55;;;;;;;14.90;49.94;97380.52;1716339;81;21010;-60
2022/04/02 10:22:48;;;;;;;2.37;1.82;;;;;;;14.91;49.94;97382.66;1713071;81;21543;-60
2022/04/02 10:25:15;;;;;;;2.65;2.00;;;;;;;14.92;49.92;97378.94;1695223;82;21014;-61
2022/04/02 10:27:43;;;;;;;2.55;1.72;;;;;;;14.93;49.89;97383.20;1689278;84;21249;-60
2022/04/02 10:30:14;;;;;;;1.72;1.35;;;;;;;14.95;49.86;97394.48;1686430;83;21089;-60
2022/04/02 10:32:52;;;;;;;1.80;1.40;;;;;;;14.96;49.87;97393.41;1670558;85;21197;-59
2022/04/02 10:35:20;;;;;;;2.10;1.32;;;;;;;14.96;49.84;97395.28;1632977;86;21021;-60
2022/04/02 10:38:13;;;;;;;2.00;1.65;;;;;;;14.98;49.82;97405.19;1630146;87;21049;-60
2022/04/02 10:40:46;;;;;;;1.75;1.50;;;;;;;14.98;49.82;97402.52;1649571;85;22193;-60
2022/04/02 10:43:26;;;;;;;1.47;1.30;;;;;;;14.98;49.78;97403.31;1636276;86;21117;-59
2022/04/02 10:45:53;;;;;;;2.85;1.70;;;;;;;14.99;49.76;97402.27;1657532;86;21019;-60
2022/04/02 10:48:46;;;;;;;1.72;1.40;;;;;;;14.98;49.76;97408.66;1656545;86;21180;-60
2022/04/02 10:51:13;;;;;;;2.15;1.45;;;;;;;14.99;49.75;97406.78;1655969;86;21073;-60
2022/04/02 10:53:43;;;;;;;1.82;1.60;;;;;;;14.98;49.74;97410.00;1653151;86;21521;-59
2022/04/02 10:56:17;;;;;;;2.42;1.60;;;;;;;14.98;49.73;97409.20;1651916;86;21018;-60
2022/04/02 10:58:46;;;;;;;;;;;;;;;14.97;49.73;97412.41;1662214;86;21101;-59
2022/04/02 11:01:13;;;;;;;1.92;1.47;;;;;;;14.99;49.72;97417.48;1655326;86;20258;-59
2022/04/02 11:03:40;;;;;;;2.55;1.75;;;;;;;14.96;49.70;97413.45;1659685;86;21129;-60
2022/04/02 11:06:08;;;;;;;1.57;1.47;;;;;;;14.98;49.70;97415.88;1658949;86;21687;-60
2022/04/02 11:08:35;;;;;;;2.10;1.70;;;;;;;14.98;49.72;97413.20;1660508;86;21088;-61
2022/04/02 11:11:24;;;;;;;1.95;1.62;;;;;;;14.99;49.70;97414.30;1658873;86;21033;-60
2022/04/02 11:14:03;;;;;;;2.40;1.60;;;;;;;15.00;49.69;97411.09;1656781;86;21061;-61
2022/04/02 11:16:40;;;;;;;1.87;1.32;;;;;;;15.00;49.67;97412.42;1656737;86;21030;-60
2022/04/02 11:22:02;;;;;;;1.95;1.75;;;;;;;15.00;49.64;97417.23;1657631;86;21052;-60
2022/04/02 11:24:33;;;;;;;1.77;1.52;;;;;;;14.99;49.65;97419.64;1656785;86;21045;-60
2022/04/02 11:27:00;;;;;;;1.40;1.30;;;;;;;15.00;49.65;97420.45;1659034;86;21057;-60
2022/04/02 11:29:27;;;;;;;2.25;1.67;;;;;;;15.00;49.66;97421.24;1659789;86;21194;-59
2022/04/02 11:31:53;;;;;;;1.42;1.32;;;;;;;14.99;49.64;97420.98;1661476;86;21149;-59
2022/04/02 11:34:20;;;;;;;1.42;1.30;;;;;;;15.00;49.63;97423.91;1660597;86;21049;-61
2022/04/02 11:36:48;;;;;;;1.40;1.30;;;;;;;15.01;49.62;97417.52;1642514;86;21028;-61
2022/04/02 11:39:26;;;;;;;1.40;1.30;;;;;;;15.01;49.60;97424.72;1645328;86;21009;-59
2022/04/02 11:41:56;;;;;;;1.50;1.40;;;;;;;15.02;49.60;97421.80;1618582;88;21089;-60
2022/04/02 11:44:34;;;;;;;1.55;1.25;;;;;;;15.02;49.59;97425.80;1659572;84;21178;-62
2022/04/02 11:47:05;;;;;;;1.80;1.45;;;;;;;15.02;49.58;97422.33;1663101;85;21058;-61
2022/04/02 11:49:40;;;;;;;1.55;1.40;;;;;;;15.02;49.58;97419.66;1661691;84;21070;-59
2022/04/02 11:52:10;;;;;;;2.33;1.60;;;;;;;15.02;49.58;97420.45;1630464;87;21017;-60
2022/04/02 11:54:51;;;;;;;3.15;1.95;;;;;;;15.03;49.57;97428.77;1629895;87;21163;-61
2022/04/02 11:57:18;;;;;;;2.55;1.55;;;;;;;15.03;49.57;97423.42;1602963;88;21272;-59
2022/04/02 12:00:01;;;;;;;1.87;1.60;;;;;;;15.02;49.54;97427.14;1626923;87;21581;-60
2022/04/02 12:02:42;;;;;;;1.32;1.20;;;;;;;15.04;49.56;97430.37;1632796;87;21100;-60
2022/04/02 12:05:13;;;;;;;1.50;1.40;;;;;;;15.03;49.55;97428.77;1632120;87;21320;-59
2022/04/02 12:07:50;;;;;;;1.50;1.40;;;;;;;15.03;49.55;97439.47;1629190;87;22292;-60
2022/04/02 12:10:21;;;;;;;2.05;1.72;;;;;;;15.03;49.54;97438.13;1629528;87;21258;-61